Time;durP1;ratioP1;P1;durP2;ratioP2;P2;SDS_P1;SDS_P2;PMS_P1;PMS_P2;Temp;Humidity;BMP_temperature;BMP_pressure;BME280_temperature;BME280_humidity;BME280_pressure;Samples;Min_cycle;Max_cycle;Signal;HPM_P1;HPM_P2
2022/05/13 00:01:31;;;;;;;6.83;2.43;;;;;;;;;;5020773;28;20218;-76
2022/05/13 00:04:01;;;;;;;5.37;2.20;;;;;;;;;;5029744;28;20273;-76
2022/05/13 00:06:29;;;;;;;4.20;2.07;;;28.40;44.40;;;;;;5023853;28;20678;-76
2022/05/13 00:08:55;;;;;;;3.43;1.87;;;20.70;53.30;;;;;;5028062;28;20178;-76
2022/05/13 00:11:22;;;;;;;2.70;1.80;;;20.50;53.60;;;;;;5028925;28;20183;-76
2022/05/13 00:13:49;;;;;;;3.63;1.97;;;20.50;54.00;;;;;;5030307;28;20416;-76
2022/05/13 00:16:17;;;;;;;6.30;2.20;;;20.40;54.30;;;;;;5024549;28;20190;-76
2022/05/13 00:18:46;;;;;;;3.93;1.90;;;20.40;54.00;;;;;;5025773;28;20234;-76
2022/05/13 00:21:13;;;;;;;5.00;2.10;;;20.30;54.00;;;;;;5018056;28;20175;-76
2022/05/13 00:23:39;;;;;;;6.70;2.40;;;20.30;54.10;;;;;;5009574;28;20256;-76
2022/05/13 00:26:06;;;;;;;3.03;2.00;;;20.30;54.30;;;;;;5007045;28;20198;-76
2022/05/13 00:28:33;;;;;;;6.13;2.30;;;20.20;54.30;;;;;;5010112;28;20206;-76
2022/05/13 00:31:00;;;;;;;4.87;2.10;;;20.20;54.40;;;;;;5018941;28;20214;-76
2022/05/13 00:33:27;;;;;;;6.50;2.10;;;20.10;54.40;;;;;;5029270;28;20209;-76
2022/05/13 00:35:57;;;;;;;3.83;2.10;;;20.20;54.70;;;;;;5025017;28;20186;-76
2022/05/13 00:38:23;;;;;;;4.53;2.10;;;20.20;54.80;;;;;;5020200;28;20708;-76
2022/05/13 00:40:50;;;;;;;3.70;2.00;;;20.10;54.60;;;;;;5025122;28;20333;-76
2022/05/13 00:43:38;;;;;;;3.40;1.90;;;20.10;55.10;;;;;;5029172;28;20187;-76
2022/05/13 00:46:05;;;;;;;5.73;2.20;;;20.10;55.50;;;;;;5029864;28;20182;-76
2022/05/13 00:48:32;;;;;;;3.03;2.00;;;20.10;55.50;;;;;;5024710;28;20194;-76
2022/05/13 00:50:59;;;;;;;4.27;2.10;;;20.10;55.30;;;;;;5034869;28;20239;-76
2022/05/13 00:53:27;;;;;;;4.23;1.97;;;20.00;55.30;;;;;;5028786;28;20190;-76
2022/05/13 00:55:54;;;;;;;3.77;1.67;;;20.00;55.40;;;;;;5010470;28;20187;-76
2022/05/13 00:58:21;;;;;;;3.17;1.93;;;20.00;55.40;;;;;;5008260;28;20210;-76
2022/05/13 01:00:48;;;;;;;4.00;1.80;;;20.00;55.50;;;;;;5011927;28;20678;-76
2022/05/13 01:03:15;;;;;;;4.37;2.10;;;20.00;55.70;;;;;;5015330;28;20183;-76
2022/05/13 01:05:44;;;;;;;3.67;1.87;;;20.00;55.80;;;;;;5026318;28;20207;-76
2022/05/13 01:08:12;;;;;;;3.63;2.07;;;19.90;55.80;;;;;;5020292;28;20213;-76
2022/05/13 01:10:40;;;;;;;3.30;2.10;;;19.90;55.70;;;;;;5022648;28;20186;-76
2022/05/13 01:13:11;;;;;;;3.93;1.90;;;19.80;55.70;;;;;;5016862;28;20189;-76
2022/05/13 01:15:42;;;;;;;4.53;2.10;;;19.80;55.80;;;;;;5023118;28;20197;-76
2022/05/13 01:18:11;;;;;;;3.23;1.87;;;19.70;55.90;;;;;;5026137;28;20226;-76
2022/05/13 01:20:47;;;;;;;3.63;1.80;;;19.60;55.90;;;;;;5020420;28;20198;-76
2022/05/13 01:23:17;;;;;;;4.90;2.20;;;19.50;56.10;;;;;;5037634;28;20183;-76
2022/05/13 01:25:48;;;;;;;3.87;2.20;;;19.50;56.20;;;;;;5028228;28;20246;-76
2022/05/13 01:28:18;;;;;;;4.43;2.13;;;19.50;56.50;;;;;;5026186;28;20446;-76
2022/05/13 01:30:51;;;;;;;5.23;2.30;;;19.50;56.60;;;;;;5028571;28;20269;-76
2022/05/13 01:33:18;;;;;;;5.10;2.53;;;19.50;56.60;;;;;;5026645;28;20179;-76
2022/05/13 01:35:48;;;;;;;5.70;2.23;;;19.50;56.60;;;;;;5029078;28;20677;-76
2022/05/13 01:38:16;;;;;;;3.60;2.17;;;19.60;56.50;;;;;;5022689;28;20297;-76
2022/05/13 01:40:43;;;;;;;3.73;2.10;;;19.50;56.50;;;;;;5026664;28;20193;-76
2022/05/13 01:43:10;;;;;;;4.87;1.80;;;19.50;56.50;;;;;;5027987;28;20178;-76
2022/05/13 01:45:37;;;;;;;4.80;2.40;;;19.40;56.90;;;;;;5018648;28;20203;-76
2022/05/13 01:48:05;;;;;;;4.40;2.30;;;19.40;56.90;;;;;;5021448;28;20199;-76
2022/05/13 01:50:31;;;;;;;6.93;2.33;;;19.40;56.70;;;;;;5036831;28;20183;-76
2022/05/13 01:52:57;;;;;;;4.03;2.10;;;19.40;56.80;;;;;;5029932;28;20211;-76
2022/05/13 01:55:23;;;;;;;4.83;2.13;;;19.40;56.70;;;;;;5030385;28;20532;-76
2022/05/13 01:57:50;;;;;;;4.20;2.20;;;19.40;56.80;;;;;;5022117;28;20210;-76
2022/05/13 02:00:16;;;;;;;2.77;1.70;;;19.30;56.80;;;;;;5033289;28;20236;-76
2022/05/13 02:05:26;;;;;;;4.63;2.03;;;19.20;57.00;;;;;;5029920;28;20221;-76
2022/05/13 02:07:52;;;;;;;3.80;2.20;;;19.10;57.30;;;;;;5023870;28;20207;-76
2022/05/13 02:10:18;;;;;;;6.50;2.23;;;19.10;57.50;;;;;;5039994;28;20251;-76
2022/05/13 02:12:44;;;;;;;4.17;2.30;;;19.20;57.70;;;;;;5028142;28;20657;-76
2022/05/13 02:15:10;;;;;;;4.17;2.30;;;19.10;57.60;;;;;;5034023;28;20186;-76
2022/05/13 02:17:36;;;;;;;3.67;2.03;;;19.00;57.90;;;;;;5026320;28;20198;-76
2022/05/13 02:20:05;;;;;;;5.67;2.40;;;19.00;58.10;;;;;;5029670;28;20180;-76
2022/05/13 02:22:31;;;;;;;2.63;2.10;;;18.90;58.20;;;;;;5033893;28;20213;-76
2022/05/13 02:24:56;;;;;;;4.40;2.13;;;18.80;58.40;;;;;;5032149;28;20686;-76
2022/05/13 02:27:22;;;;;;;4.70;2.20;;;18.80;58.50;;;;;;5031557;28;20230;-76
2022/05/13 02:29:48;;;;;;;5.63;2.20;;;18.70;58.60;;;;;;5020594;28;20178;-76
2022/05/13 02:32:13;;;;;;;7.40;2.27;;;18.70;58.80;;;;;;5034548;28;20171;-76
2022/05/13 02:34:39;;;;;;;3.90;2.10;;;18.70;58.90;;;;;;5031845;28;20179;-76
2022/05/13 02:37:05;;;;;;;7.53;2.53;;;18.60;59.00;;;;;;5028854;28;20198;-76
2022/05/13 02:39:31;;;;;;;4.37;2.40;;;18.50;59.00;;;;;;5024788;28;20293;-76
2022/05/13 02:41:56;;;;;;;6.27;2.53;;;18.50;59.10;;;;;;5028237;28;20570;-76
2022/05/13 02:44:23;;;;;;;7.13;2.90;;;18.50;59.40;;;;;;5022348;28;20289;-76
2022/05/13 02:46:49;;;;;;;3.80;2.50;;;18.40;59.90;;;;;;5031856;28;20251;-76
2022/05/13 02:49:18;;;;;;;3.50;1.97;;;18.30;60.20;;;;;;5033319;28;20194;-76
2022/05/13 02:51:49;;;;;;;6.97;2.40;;;18.40;60.50;;;;;;5033334;28;20269;-76
2022/05/13 02:54:16;;;;;;;4.37;2.33;;;18.50;60.20;;;;;;5034144;28;20186;-76
2022/05/13 02:56:43;;;;;;;4.73;2.90;;;18.50;60.40;;;;;;5031305;28;20191;-76
2022/05/13 02:59:08;;;;;;;5.97;2.70;;;18.50;59.90;;;;;;5034300;28;20199;-76
2022/05/13 03:01:35;;;;;;;5.03;2.37;;;18.40;60.20;;;;;;5039752;28;20270;-76
2022/05/13 03:04:00;;;;;;;4.10;2.50;;;18.40;61.10;;;;;;5028173;28;20178;-76
2022/05/13 03:06:27;;;;;;;5.33;2.60;;;18.30;60.40;;;;;;5033328;28;20182;-76
2022/05/13 03:08:53;;;;;;;9.47;2.60;;;18.30;60.70;;;;;;5033072;28;20174;-76
2022/05/13 03:11:20;;;;;;;8.80;3.20;;;18.20;60.60;;;;;;5030992;28;20182;-76
2022/05/13 03:13:51;;;;;;;7.97;3.20;;;18.20;60.90;;;;;;5033200;28;20225;-76
2022/05/13 03:16:21;;;;;;;6.13;2.60;;;18.20;61.00;;;;;;5030673;28;20225;-76
2022/05/13 03:18:54;;;;;;;4.30;2.57;;;18.10;61.50;;;;;;5033121;28;20202;-76
2022/05/13 03:21:20;;;;;;;8.33;2.80;;;18.10;61.50;;;;;;5037255;28;20643;-76
2022/05/13 03:23:46;;;;;;;5.10;2.60;;;18.10;61.90;;;;;;5038040;28;20285;-76
2022/05/13 03:26:14;;;;;;;4.70;2.70;;;18.10;61.70;;;;;;5027008;28;20182;-76
2022/05/13 03:28:41;;;;;;;6.17;2.77;;;18.10;61.60;;;;;;5031392;28;20306;-76
2022/05/13 03:31:07;;;;;;;3.93;2.60;;;18.00;61.40;;;;;;5033257;28;20174;-76
2022/05/13 03:33:33;;;;;;;4.03;2.70;;;18.00;61.60;;;;;;5025134;28;20190;-76
2022/05/13 03:35:59;;;;;;;5.20;2.90;;;18.10;61.50;;;;;;5026470;28;20179;-76
2022/05/13 03:38:25;;;;;;;4.87;2.60;;;18.10;61.90;;;;;;5031189;28;20271;-76
2022/05/13 03:40:51;;;;;;;5.20;3.00;;;18.00;62.30;;;;;;5017003;28;20182;-76
2022/05/13 03:43:17;;;;;;;8.87;2.87;;;18.00;62.50;;;;;;5031086;28;20594;-76
2022/05/13 03:45:43;;;;;;;6.80;3.20;;;17.90;62.80;;;;;;5025585;28;20206;-76
2022/05/13 03:48:10;;;;;;;5.73;2.90;;;17.90;62.60;;;;;;5031939;28;20237;-76
2022/05/13 03:50:39;;;;;;;6.33;2.90;;;17.90;62.90;;;;;;5026848;28;20678;-76
2022/05/13 03:53:05;;;;;;;7.20;4.67;;;17.80;63.10;;;;;;5032248;28;20634;-77
2022/05/13 03:55:32;;;;;;;4.57;3.10;;;17.90;63.30;;;;;;5033563;28;20201;-78
2022/05/13 03:57:58;;;;;;;9.83;2.93;;;17.90;62.90;;;;;;5029743;28;20247;-80
2022/05/13 04:00:24;;;;;;;4.17;2.60;;;17.80;63.40;;;;;;5023888;28;20273;-77
2022/05/13 04:02:50;;;;;;;4.13;2.70;;;17.80;64.00;;;;;;5023715;28;20277;-78
2022/05/13 04:10:45;;;;;;;5.43;2.60;;;17.80;64.70;;;;;;5012342;28;20681;-78
2022/05/13 04:16:06;;;;;;;4.30;2.63;;;17.90;65.80;;;;;;5026086;28;20175;-78
2022/05/13 04:18:58;;;;;;;6.73;2.80;;;17.80;66.10;;;;;;5029264;28;20224;-78
2022/05/13 04:21:30;;;;;;;7.30;3.10;;;17.90;66.50;;;;;;5023277;28;20193;-78
2022/05/13 04:23:59;;;;;;;5.13;2.90;;;17.80;67.30;;;;;;5030203;28;20517;-78
2022/05/13 04:26:26;;;;;;;6.30;3.20;;;17.70;70.60;;;;;;5029136;28;20189;-78
2022/05/13 04:28:54;;;;;;;7.27;2.67;;;17.70;72.50;;;;;;5029509;28;20202;-78
2022/05/13 04:31:25;;;;;;;4.27;2.80;;;17.70;72.30;;;;;;5027912;28;20657;-78
2022/05/13 04:33:52;;;;;;;4.73;2.80;;;17.70;73.40;;;;;;5030252;28;20194;-78
2022/05/13 04:36:19;;;;;;;3.53;2.57;;;17.70;74.60;;;;;;5028403;28;20984;-78
2022/05/13 04:38:45;;;;;;;4.97;3.00;;;17.70;76.20;;;;;;5028914;28;20194;-78
2022/05/13 04:44:00;;;;;;;5.40;3.00;;;17.70;74.00;;;;;;5027885;28;20187;-78
2022/05/13 04:46:26;;;;;;;5.93;3.00;;;17.70;74.80;;;;;;5026839;28;20179;-78
2022/05/13 04:49:12;;;;;;;4.53;2.70;;;17.70;75.80;;;;;;5013052;28;20198;-78
2022/05/13 04:51:38;;;;;;;5.40;3.13;;;17.70;75.30;;;;;;5029614;28;20181;-78
2022/05/13 04:54:04;;;;;;;7.43;2.90;;;17.70;75.60;;;;;;5026740;28;20228;-78
2022/05/13 04:56:30;;;;;;;7.60;2.93;;;17.70;75.00;;;;;;5029497;28;20559;-78
2022/05/13 04:58:57;;;;;;;5.73;3.30;;;17.70;77.80;;;;;;5028971;28;20623;-78
2022/05/13 05:01:23;;;;;;;5.93;3.53;;;17.70;78.90;;;;;;5029266;28;20182;-78
2022/05/13 05:03:49;;;;;;;5.37;3.10;;;17.80;79.00;;;;;;5028768;28;20580;-78
2022/05/13 05:06:17;;;;;;;5.87;3.33;;;17.70;78.10;;;;;;5028962;28;21072;-78
2022/05/13 05:08:44;;;;;;;7.23;3.20;;;17.70;78.40;;;;;;5022835;28;20390;-78
2022/05/13 05:11:11;;;;;;;5.27;3.10;;;17.80;77.30;;;;;;5028667;28;20210;-78
2022/05/13 05:13:40;;;;;;;7.07;3.23;;;17.70;78.70;;;;;;5031725;28;20658;-78
2022/05/13 05:16:07;;;;;;;6.47;3.40;;;17.70;78.60;;;;;;5029690;28;20182;-78
2022/05/13 05:18:34;;;;;;;6.77;3.50;;;17.70;78.90;;;;;;5010631;28;20601;-78
2022/05/13 05:21:00;;;;;;;5.50;2.90;;;17.70;81.00;;;;;;5029499;28;20183;-77
2022/05/13 05:23:30;;;;;;;15.87;4.07;;;17.60;82.90;;;;;;5024521;28;20600;-77
2022/05/13 05:25:56;;;;;;;14.67;4.00;;;17.60;90.00;;;;;;5029070;28;20245;-77
2022/05/13 05:28:22;;;;;;;14.50;3.87;;;17.60;90.50;;;;;;5028715;28;20198;-77
2022/05/13 05:30:48;;;;;;;12.40;4.40;;;17.60;90.70;;;;;;5028555;28;20178;-77
2022/05/13 05:33:15;;;;;;;10.13;4.77;;;17.60;90.10;;;;;;5029562;28;20253;-78
2022/05/13 05:35:41;;;;;;;8.73;4.40;;;17.70;89.10;;;;;;5026086;28;20190;-77
2022/05/13 05:38:07;;;;;;;7.93;4.20;;;17.60;89.50;;;;;;5024059;28;20229;-77
2022/05/13 05:40:34;;;;;;;5.70;3.50;;;17.70;87.00;;;;;;5028756;28;20190;-78
2022/05/13 05:43:05;;;;;;;5.80;3.70;;;17.70;86.20;;;;;;5026362;28;20191;-77
2022/05/13 05:45:32;;;;;;;6.23;3.60;;;17.70;84.10;;;;;;5025124;28;20206;-77
2022/05/13 05:47:58;;;;;;;5.93;4.07;;;17.90;83.10;;;;;;5028215;28;20251;-77
2022/05/13 05:50:24;;;;;;;8.57;4.03;;;18.00;82.80;;;;;;5028012;28;20685;-77
2022/05/13 05:52:50;;;;;;;6.87;3.40;;;18.00;80.70;;;;;;5026575;28;20201;-77
2022/05/13 05:58:02;;;;;;;5.60;2.87;;;18.20;75.10;;;;;;5027150;28;20763;-77
2022/05/13 06:00:29;;;;;;;6.67;3.50;;;18.30;74.20;;;;;;5028624;28;20626;-75
2022/05/13 06:02:55;;;;;;;5.67;3.10;;;18.40;75.10;;;;;;5030719;28;20603;-78
2022/05/13 06:05:23;;;;;;;7.83;3.20;;;18.40;74.20;;;;;;5025704;28;20205;-78
2022/05/13 06:07:50;;;;;;;5.93;2.80;;;18.40;73.70;;;;;;5030406;28;20201;-79
2022/05/13 06:10:17;;;;;;;6.27;2.70;;;18.50;72.90;;;;;;5025043;28;20182;-79
2022/05/13 06:12:43;;;;;;;4.40;2.73;;;18.50;72.80;;;;;;5018279;28;20186;-79
2022/05/13 06:15:12;;;;;;;3.83;2.63;;;18.60;72.60;;;;;;5023303;28;20196;-78
2022/05/13 06:17:46;;;;;;;6.17;2.40;;;18.50;72.20;;;;;;5022845;28;20261;-79
2022/05/13 06:20:14;;;;;;;4.37;2.80;;;18.50;73.30;;;;;;5019670;28;20184;-79
2022/05/13 06:22:40;;;;;;;5.37;2.40;;;18.60;74.20;;;;;;5026207;28;20733;-79
2022/05/13 06:25:08;;;;;;;6.50;2.70;;;18.50;74.20;;;;;;5029042;28;20207;-79
2022/05/13 06:27:34;;;;;;;6.23;2.30;;;18.50;73.00;;;;;;5030739;28;20622;-78
2022/05/13 06:30:00;;;;;;;6.20;2.80;;;18.40;71.90;;;;;;5013843;28;20206;-79
2022/05/13 06:32:26;;;;;;;5.00;2.30;;;18.30;72.50;;;;;;5021953;28;20206;-79
2022/05/13 06:34:52;;;;;;;4.57;2.20;;;18.30;70.60;;;;;;5027084;28;20191;-79
2022/05/13 06:37:17;;;;;;;6.43;2.30;;;18.30;69.10;;;;;;5028889;28;20190;-79
2022/05/13 06:39:43;;;;;;;4.00;2.20;;;18.40;67.60;;;;;;5026971;28;20618;-82
2022/05/13 06:42:09;;;;;;;4.07;2.10;;;18.50;67.00;;;;;;5017397;28;20741;-80
2022/05/13 06:44:41;;;;;;;11.37;2.40;;;18.60;65.40;;;;;;5022042;28;20203;-79
2022/05/13 06:47:07;;;;;;;4.03;2.00;;;18.80;66.00;;;;;;5026123;28;20281;-79
2022/05/13 06:49:33;;;;;;;4.57;2.20;;;18.90;65.00;;;;;;5019568;28;20229;-78
2022/05/13 06:52:01;;;;;;;6.30;2.30;;;19.00;64.20;;;;;;5015267;28;20176;-79
2022/05/13 06:54:26;;;;;;;4.97;2.27;;;19.10;62.90;;;;;;5015144;28;20693;-80
2022/05/13 06:56:54;;;;;;;4.57;1.93;;;19.10;61.70;;;;;;5011671;28;20207;-79
2022/05/13 06:59:20;;;;;;;3.53;1.80;;;19.00;59.60;;;;;;5020067;28;20666;-79
2022/05/13 07:01:46;;;;;;;5.07;1.83;;;19.00;59.50;;;;;;5020943;28;20203;-79
2022/05/13 07:04:13;;;;;;;4.43;2.00;;;18.90;59.00;;;;;;5021815;28;20203;-79
2022/05/13 07:06:39;;;;;;;4.57;1.80;;;18.90;59.20;;;;;;5016080;28;20198;-79
2022/05/13 07:09:05;;;;;;;5.57;2.23;;;18.90;59.00;;;;;;5024492;28;20542;-79
2022/05/13 07:11:31;;;;;;;3.30;2.07;;;18.80;59.30;;;;;;5024172;28;20186;-78
2022/05/13 07:13:57;;;;;;;5.70;1.83;;;18.80;59.40;;;;;;5032311;28;20182;-76
2022/05/13 07:16:23;;;;;;;3.30;1.73;;;18.60;59.40;;;;;;5025015;28;20180;-80
2022/05/13 07:18:49;;;;;;;4.93;2.20;;;18.70;60.30;;;;;;5033089;28;20202;-77
2022/05/13 07:21:15;;;;;;;5.30;2.03;;;18.70;59.90;;;;;;5040633;28;20171;-78
2022/05/13 07:23:42;;;;;;;4.93;2.10;;;18.70;59.20;;;;;;5031243;28;20202;-80
2022/05/13 07:26:08;;;;;;;3.20;1.83;;;18.70;59.70;;;;;;5028593;28;20697;-79
2022/05/13 07:28:35;;;;;;;4.43;1.73;;;18.80;60.20;;;;;;5033495;28;20686;-80
2022/05/13 07:31:02;;;;;;;3.90;1.93;;;18.90;59.80;;;;;;5025359;28;20202;-81
2022/05/13 07:33:30;;;;;;;4.63;1.90;;;19.00;59.70;;;;;;5029477;28;20228;-81
2022/05/13 07:35:56;;;;;;;2.80;1.83;;;19.00;58.90;;;;;;5026999;28;20528;-81
2022/05/13 07:38:22;;;;;;;3.87;2.10;;;18.90;58.00;;;;;;5032347;28;20209;-81
2022/05/13 07:43:35;;;;;;;4.03;2.10;;;18.70;58.50;;;;;;5009665;28;20244;-81
2022/05/13 07:46:02;;;;;;;5.57;1.83;;;18.60;58.70;;;;;;5029160;28;20250;-81
2022/05/13 07:48:28;;;;;;;4.43;2.20;;;18.60;58.90;;;;;;5032319;28;20622;-81
2022/05/13 07:50:54;;;;;;;5.40;2.00;;;18.60;58.90;;;;;;5035065;28;20210;-81
2022/05/13 07:53:20;;;;;;;4.97;1.93;;;18.50;59.30;;;;;;5034222;28;20551;-81
2022/05/13 07:55:46;;;;;;;3.77;1.80;;;18.60;59.40;;;;;;5035585;28;20228;-81
2022/05/13 07:58:12;;;;;;;6.97;2.00;;;18.70;59.20;;;;;;5034925;28;20685;-81
2022/05/13 08:00:38;;;;;;;5.67;2.30;;;18.80;58.90;;;;;;5031606;28;20191;-81
2022/05/13 08:03:08;;;;;;;4.83;2.10;;;19.00;58.80;;;;;;5016134;28;20638;-81
2022/05/13 08:05:42;;;;;;;8.80;2.20;;;19.20;58.20;;;;;;5030822;28;20217;-81
2022/05/13 08:08:30;;;;;;;4.47;2.00;;;19.30;56.40;;;;;;5034188;28;20726;-81
2022/05/13 08:11:00;;;;;;;4.97;2.10;;;19.20;56.10;;;;;;5041910;28;20195;-81
2022/05/13 08:13:30;;;;;;;8.97;2.20;;;19.20;56.60;;;;;;5034507;28;20163;-81
2022/05/13 08:15:57;;;;;;;5.07;2.20;;;19.20;56.60;;;;;;5035738;28;20185;-81
2022/05/13 08:18:23;;;;;;;5.57;2.40;;;19.10;56.60;;;;;;5026900;28;20213;-81
2022/05/13 08:20:49;;;;;;;6.07;1.87;;;19.00;56.90;;;;;;5029130;28;20175;-81
2022/05/13 08:23:15;;;;;;;7.97;2.33;;;19.00;57.30;;;;;;5013574;28;20182;-81
2022/05/13 08:25:41;;;;;;;4.33;2.10;;;19.00;57.10;;;;;;5012747;28;20263;-81
2022/05/13 08:28:08;;;;;;;5.00;1.97;;;19.00;57.20;;;;;;5019950;28;20199;-81
2022/05/13 08:30:35;;;;;;;6.70;2.57;;;19.00;57.40;;;;;;5012674;28;20184;-81
2022/05/13 08:33:02;;;;;;;4.47;2.00;;;19.10;57.70;;;;;;5013328;28;20291;-81
2022/05/13 08:35:28;;;;;;;5.33;2.00;;;19.10;56.40;;;;;;5028709;28;20187;-81
2022/05/13 08:37:55;;;;;;;4.90;2.23;;;19.20;56.00;;;;;;5013501;28;20579;-81
2022/05/13 08:41:04;;;;;;;5.00;1.80;;;19.30;56.30;;;;;;5012420;28;20195;-81
2022/05/13 08:43:38;;;;;;;5.90;2.30;;;19.30;55.70;;;;;;5001213;28;20697;-81
2022/05/13 08:46:16;;;;;;;5.13;2.30;;;19.40;55.90;;;;;;4995901;28;20716;-81
2022/05/13 08:49:12;;;;;;;4.70;2.20;;;19.50;55.70;;;;;;5012432;28;20215;-81
2022/05/13 08:51:59;;;;;;;5.37;2.00;;;19.60;55.40;;;;;;5014375;28;20202;-81
2022/05/13 08:54:32;;;;;;;6.27;2.47;;;19.50;54.70;;;;;;5013263;28;20183;-81
2022/05/13 08:57:08;;;;;;;5.00;2.17;;;19.40;55.40;;;;;;5033197;28;20221;-81
2022/05/13 08:59:53;;;;;;;5.27;2.60;;;19.50;55.60;;;;;;5031900;28;20202;-81
2022/05/13 09:02:28;;;;;;;6.27;2.47;;;19.60;55.20;;;;;;5032198;28;20278;-81
2022/05/13 09:05:06;;;;;;;5.80;1.93;;;19.80;54.60;;;;;;5027194;28;20210;-81
2022/05/13 09:07:32;;;;;;;5.50;2.03;;;19.90;53.80;;;;;;5030359;28;20209;-81
2022/05/13 09:10:03;;;;;;;3.70;1.90;;;20.00;54.40;;;;;;5030389;28;20207;-81
2022/05/13 09:12:41;;;;;;;6.23;2.13;;;20.10;54.50;;;;;;5038727;28;20233;-81
2022/05/13 09:15:16;;;;;;;5.40;1.90;;;20.20;54.50;;;;;;5038695;28;20191;-81
2022/05/13 09:17:44;;;;;;;4.73;2.50;;;20.40;54.20;;;;;;5027410;28;20202;-81
2022/05/13 09:20:14;;;;;;;5.37;2.23;;;20.50;52.70;;;;;;5028300;28;20186;-81
2022/05/13 09:22:59;;;;;;;5.27;2.00;;;20.50;53.10;;;;;;5028063;28;20202;-81
2022/05/13 09:25:36;;;;;;;4.93;1.83;;;20.50;53.20;;;;;;5025499;28;20293;-81
2022/05/13 09:28:11;;;;;;;5.83;2.17;;;20.60;52.80;;;;;;5032309;28;20202;-81
2022/05/13 09:30:43;;;;;;;4.10;2.00;;;20.70;52.90;;;;;;5040448;28;20288;-81
2022/05/13 09:33:30;;;;;;;4.73;2.10;;;20.80;52.30;;;;;;5019971;28;20182;-81
2022/05/13 09:36:00;;;;;;;5.47;2.10;;;20.90;51.80;;;;;;5027376;28;20170;-81
2022/05/13 09:38:30;;;;;;;4.93;2.10;;;20.80;51.40;;;;;;5029946;28;20554;-81
2022/05/13 09:40:58;;;;;;;4.43;2.00;;;20.80;51.60;;;;;;5028314;28;20812;-81
2022/05/13 09:43:39;;;;;;;4.57;1.90;;;20.90;50.90;;;;;;5028654;28;20178;-81
2022/05/13 09:46:12;;;;;;;4.33;2.00;;;21.00;51.00;;;;;;5028271;28;20582;-81
2022/05/13 09:48:53;;;;;;;6.10;1.90;;;21.20;51.40;;;;;;5021203;28;20286;-81
2022/05/13 09:51:30;;;;;;;6.77;1.80;;;21.30;50.00;;;;;;5034445;28;20187;-81
2022/05/13 09:54:01;;;;;;;4.67;1.90;;;21.40;49.80;;;;;;5017480;28;20182;-81
2022/05/13 09:56:39;;;;;;;4.57;1.83;;;21.40;49.40;;;;;;5012753;28;20521;-81
2022/05/13 09:59:13;;;;;;;3.60;1.53;;;21.30;49.50;;;;;;5027190;28;20186;-81
2022/05/13 10:01:39;;;;;;;3.50;1.40;;;21.40;49.40;;;;;;5022094;28;20203;-80
2022/05/13 10:04:21;;;;;;;3.60;1.80;;;21.50;48.00;;;;;;5022852;28;20950;-81
2022/05/13 10:06:47;;;;;;;3.80;1.60;;;21.40;48.40;;;;;;5029987;28;20182;-81
2022/05/13 10:15:14;;;;;;;6.87;1.93;;;21.50;48.60;;;;;;5031249;28;20178;-83
2022/05/13 10:17:47;;;;;;;4.97;1.60;;;21.50;47.90;;;;;;5031107;28;20603;-80
2022/05/13 10:20:32;;;;;;;2.37;1.37;;;21.40;48.60;;;;;;5019329;28;20179;-80
2022/05/13 10:23:27;;;;;;;3.97;1.50;;;21.60;49.00;;;;;;5030654;28;20269;-78
2022/05/13 10:25:58;;;;;;;6.73;1.67;;;21.80;48.50;;;;;;5030642;28;20206;-79
2022/05/13 10:28:32;;;;;;;3.43;1.50;;;21.80;47.80;;;;;;5030485;28;20203;-81
2022/05/13 10:31:10;;;;;;;6.17;1.83;;;21.90;48.00;;;;;;5026316;28;20174;-80
2022/05/13 10:33:43;;;;;;;5.00;1.80;;;22.00;47.50;;;;;;5028155;28;20192;-81
2022/05/13 10:36:17;;;;;;;4.13;1.73;;;22.10;47.40;;;;;;5033807;28;20198;-78
2022/05/13 10:38:56;;;;;;;5.00;1.57;;;22.30;47.10;;;;;;5000492;28;20321;-79
2022/05/13 10:41:36;;;;;;;2.50;1.50;;;22.40;47.10;;;;;;5025802;28;20243;-79
2022/05/13 10:44:20;;;;;;;3.37;1.50;;;22.50;46.50;;;;;;5032042;28;20193;-80
2022/05/13 10:46:53;;;;;;;6.53;1.40;;;22.50;46.90;;;;;;5029606;28;20193;-78
2022/05/13 10:49:19;;;;;;;3.37;1.60;;;22.40;47.10;;;;;;5024957;28;20189;-78
2022/05/13 10:52:11;;;;;;;8.57;1.70;;;22.50;46.90;;;;;;5027589;28;20178;-78
2022/05/13 10:54:48;;;;;;;4.37;1.70;;;22.70;46.30;;;;;;5028421;28;20240;-78
2022/05/13 10:57:41;;;;;;;3.73;1.30;;;22.80;45.90;;;;;;5023069;28;20234;-78
2022/05/13 11:00:17;;;;;;;3.07;1.50;;;23.10;45.60;;;;;;5026342;28;20198;-78
2022/05/13 11:03:14;;;;;;;4.30;1.70;;;23.40;45.40;;;;;;5021763;28;20237;-78
2022/05/13 11:06:19;;;;;;;7.43;1.63;;;23.30;45.40;;;;;;5028262;28;20280;-78
2022/05/13 11:09:09;;;;;;;3.60;1.60;;;23.30;44.40;;;;;;5023800;28;20195;-79
2022/05/13 11:11:38;;;;;;;4.10;1.60;;;23.10;44.30;;;;;;5030129;28;20237;-79
2022/05/13 11:14:22;;;;;;;6.43;1.27;;;23.30;45.10;;;;;;5036161;28;20270;-79
2022/05/13 11:17:06;;;;;;;3.43;1.30;;;23.40;44.20;;;;;;5024906;28;20533;-79
2022/05/13 11:19:37;;;;;;;2.73;1.30;;;23.70;43.00;;;;;;5024453;28;20178;-79
2022/05/13 11:22:13;;;;;;;2.60;1.27;;;23.80;43.20;;;;;;5027975;28;20278;-80
2022/05/13 11:28:16;;;;;;;3.57;1.43;;;24.10;43.40;;;;;;5023217;28;20210;-78
2022/05/13 11:30:56;;;;;;;3.83;1.20;;;24.10;42.50;;;;;;5030020;28;20197;-78
2022/05/13 11:34:15;;;;;;;3.43;1.40;;;23.90;42.10;;;;;;5014793;28;20198;-77
2022/05/13 11:36:56;;;;;;;6.27;1.60;;;23.70;43.00;;;;;;5029861;28;20191;-81
2022/05/13 11:39:45;;;;;;;7.17;1.57;;;24.00;42.70;;;;;;5025170;28;20644;-78
2022/05/13 11:45:52;;;;;;;3.40;1.30;;;24.90;41.50;;;;;;5030336;28;20225;-78
2022/05/13 11:48:37;;;;;;;4.13;1.33;;;;;;;;;;5028786;28;20217;-78
2022/05/13 11:51:05;;;;;;;2.50;1.20;;;;;;;;;;5024995;28;20612;-79
2022/05/13 11:53:49;;;;;;;2.63;1.20;;;;;;;;;;5027809;28;20294;-78
2022/05/13 11:56:35;;;;;;;3.07;1.40;;;;;;;;;;5030532;28;20182;-77
2022/05/13 11:59:11;;;;;;;2.70;1.30;;;;;;;;;;5031665;28;20276;-79
2022/05/13 12:01:37;;;;;;;3.50;1.20;;;;;;;;;;5028682;28;20677;-78
2022/05/13 12:04:12;;;;;;;2.40;0.87;;;;;;;;;;5028851;28;20174;-79
2022/05/13 12:06:50;;;;;;;2.93;1.33;;;;;;;;;;5030188;28;20656;-79
2022/05/13 12:09:16;;;;;;;4.63;1.13;;;;;;;;;;5027858;28;20237;-79
2022/05/13 12:11:43;;;;;;;2.93;1.30;;;;;;;;;;5030346;28;20197;-79
2022/05/13 12:14:11;;;;;;;3.20;1.00;;;;;;;;;;5026048;28;20195;-79
2022/05/13 12:16:46;;;;;;;2.40;1.10;;;;;;;;;;5029033;28;20186;-78
2022/05/13 12:19:31;;;;;;;2.63;1.20;;;;;;;;;;5009998;28;20241;-79
2022/05/13 12:21:59;;;;;;;4.07;1.20;;;;;;;;;;5031197;28;20187;-79
2022/05/13 12:24:26;;;;;;;4.47;1.30;;;;;;;;;;5031202;28;20188;-79
2022/05/13 12:26:52;;;;;;;2.70;1.30;;;;;;;;;;5027230;28;20198;-79
2022/05/13 12:29:24;;;;;;;3.87;1.23;;;;;;;;;;5029204;28;20190;-79
2022/05/13 12:31:54;;;;;;;1.90;1.20;;;;;;;;;;5030330;28;20181;-79
2022/05/13 12:40:02;;;;;;;4.87;1.10;;;;;;;;;;5029938;28;20175;-79
2022/05/13 12:42:44;;;;;;;2.43;0.97;;;;;;;;;;5030857;28;20241;-80
2022/05/13 12:45:12;;;;;;;2.43;1.20;;;;;;;;;;5031385;28;20260;-79
2022/05/13 12:47:58;;;;;;;3.60;1.40;;;;;;;;;;5028239;28;20855;-80
2022/05/13 12:50:41;;;;;;;2.57;1.20;;;;;;;;;;5027304;28;20192;-80
2022/05/13 12:53:26;;;;;;;2.73;1.17;;;;;;;;;;5030016;28;20201;-81
2022/05/13 12:55:54;;;;;;;4.03;1.30;;;;;;;;;;5029924;28;20187;-81
2022/05/13 12:58:20;;;;;;;3.17;1.30;;;;;;;;;;5027684;28;20208;-81
2022/05/13 13:00:47;;;;;;;2.37;1.20;;;;;;;;;;5030062;28;20200;-81
2022/05/13 13:03:14;;;;;;;3.10;1.20;;;;;;;;;;5029873;28;20193;-81
2022/05/13 13:05:42;;;;;;;3.90;1.23;;;;;;;;;;5030294;28;20206;-81
2022/05/13 13:08:13;;;;;;;4.37;1.23;;;;;;;;;;5027588;28;20247;-81
2022/05/13 13:10:54;;;;;;;3.40;1.30;;;;;;;;;;5028542;28;20182;-81
2022/05/13 13:13:29;;;;;;;2.00;1.13;;;;;;;;;;5020478;28;20189;-81
2022/05/13 13:15:59;;;;;;;2.40;1.10;;;;;;;;;;5025378;28;20209;-81
2022/05/13 13:18:37;;;;;;;1.73;1.00;;;;;;;;;;5030508;28;20206;-81
2022/05/13 13:21:10;;;;;;;1.87;1.10;;;;;;;;;;5022991;28;20218;-81
2022/05/13 13:23:39;;;;;;;2.13;1.10;;;;;;;;;;5027695;28;20179;-81
2022/05/13 13:26:06;;;;;;;1.67;1.10;;;;;;;;;;5019535;28;20210;-81
2022/05/13 13:28:35;;;;;;;3.57;1.17;;;;;;;;;;5029652;28;20520;-81
2022/05/13 13:31:06;;;;;;;2.53;0.90;;;;;;;;;;5030961;28;20190;-81
2022/05/13 13:33:34;;;;;;;4.63;1.10;;;;;;;;;;5018892;28;20292;-81
2022/05/13 13:36:06;;;;;;;2.47;1.10;;;;;;;;;;5025900;28;20278;-82
2022/05/13 13:38:33;;;;;;;1.97;1.10;;;;;;;;;;5020355;28;20212;-81
2022/05/13 13:40:59;;;;;;;3.43;1.10;;;;;;;;;;5023696;28;20180;-81
2022/05/13 13:43:27;;;;;;;2.40;1.20;;;;;;;;;;5025142;28;20247;-80
2022/05/13 13:45:59;;;;;;;2.07;1.10;;;;;;;;;;5025185;28;20209;-81
2022/05/13 13:48:30;;;;;;;3.57;1.17;;;;;;;;;;5031157;28;20196;-81
2022/05/13 13:50:58;;;;;;;1.63;1.07;;;;;;;;;;5028184;28;20185;-81
2022/05/13 13:53:26;;;;;;;2.43;1.03;;;;;;;;;;5030301;28;20233;-81
2022/05/13 13:55:52;;;;;;;8.07;1.37;;;;;;;;;;5030224;28;20678;-80
2022/05/13 13:58:28;;;;;;;1.80;1.10;;;;;;;;;;5027702;28;20200;-80